Time;durP1;ratioP1;P1;durP2;ratioP2;P2;SDS_P1;SDS_P2;PMS_P1;PMS_P2;Temp;Humidity;BMP_temperature;BMP_pressure;BME280_temperature;BME280_humidity;BME280_pressure;Samples;Min_cycle;Max_cycle;Signal;HPM_P1;HPM_P2
2023/09/30 00:01:01;;;;;;;5.00;1.33;;;18.80;99.90;;;;;;5017417;28;20212;-74
2023/09/30 00:03:27;;;;;;;3.53;0.80;;;18.80;99.90;;;;;;5018772;28;20223;-74
2023/09/30 00:05:54;;;;;;;3.75;1.02;;;18.80;99.90;;;;;;5019605;28;20212;-73
2023/09/30 00:08:19;;;;;;;3.53;0.80;;;18.70;99.90;;;;;;5022163;28;20212;-73
2023/09/30 00:10:46;;;;;;;5.25;1.55;;;18.60;99.90;;;;;;5019665;28;20584;-73
2023/09/30 00:13:12;;;;;;;3.25;0.95;;;18.60;99.90;;;;;;5021272;28;20580;-74
2023/09/30 00:15:38;;;;;;;5.15;1.08;;;18.40;99.90;;;;;;5020172;28;20180;-74
2023/09/30 00:18:05;;;;;;;4.68;1.38;;;18.40;99.90;;;;;;5021312;28;20183;-74
2023/09/30 00:20:31;;;;;;;2.80;1.27;;;18.30;99.90;;;;;;5020986;28;20246;-74
2023/09/30 00:22:57;;;;;;;6.75;1.55;;;18.20;99.90;;;;;;5019444;28;20217;-74
2023/09/30 00:25:22;;;;;;;2.38;0.98;;;18.20;99.90;;;;;;5021455;28;20277;-74
2023/09/30 00:27:48;;;;;;;2.45;0.90;;;18.20;99.90;;;;;;5016764;28;20244;-74
2023/09/30 00:30:14;;;;;;;4.97;1.50;;;18.10;99.90;;;;;;5021059;28;20200;-74
2023/09/30 00:32:39;;;;;;;3.08;0.95;;;18.10;99.90;;;;;;5032673;23;20268;-76
2023/09/30 00:35:11;;;;;;;2.22;1.08;;;18.10;99.90;;;;;;5009360;28;20240;-75
2023/09/30 00:37:39;;;;;;;4.43;1.77;;;18.00;99.90;;;;;;5009127;28;20258;-73
2023/09/30 00:40:06;;;;;;;4.15;1.17;;;18.00;99.90;;;;;;5010435;28;20715;-74
2023/09/30 00:42:31;;;;;;;5.70;1.17;;;18.00;99.90;;;;;;5010104;28;20201;-74
2023/09/30 00:44:57;;;;;;;3.78;1.98;;;17.90;99.90;;;;;;5009718;28;20165;-74
2023/09/30 00:47:23;;;;;;;6.15;1.60;;;17.90;99.90;;;;;;5010426;28;20213;-75
2023/09/30 00:49:50;;;;;;;5.18;1.42;;;17.80;99.90;;;;;;5009123;28;20624;-75
2023/09/30 00:52:18;;;;;;;3.25;1.25;;;17.70;99.90;;;;;;5005933;28;20208;-74
2023/09/30 00:54:44;;;;;;;7.05;2.30;;;17.70;99.90;;;;;;5009050;28;20644;-75
2023/09/30 00:57:11;;;;;;;4.53;1.40;;;17.60;99.90;;;;;;5010514;28;20208;-74
2023/09/30 00:59:37;;;;;;;7.95;1.75;;;17.60;99.90;;;;;;5010558;28;20205;-74
2023/09/30 01:02:05;;;;;;;4.72;1.08;;;17.40;99.90;;;;;;5009305;28;20217;-74
2023/09/30 01:04:31;;;;;;;5.25;2.33;;;17.40;99.90;;;;;;5009152;28;20702;-74
2023/09/30 01:06:59;;;;;;;3.83;1.73;;;17.30;99.90;;;;;;5009975;28;20221;-74
2023/09/30 01:09:25;;;;;;;3.83;1.50;;;17.30;99.90;;;;;;5010529;28;20272;-74
2023/09/30 01:11:51;;;;;;;4.68;1.27;;;17.30;99.90;;;;;;5010180;28;20600;-74
2023/09/30 01:14:30;;;;;;;4.22;1.52;;;17.20;99.90;;;;;;5010272;28;20224;-74
2023/09/30 01:16:56;;;;;;;4.60;1.58;;;17.20;99.90;;;;;;5009653;28;20201;-74
2023/09/30 01:19:25;;;;;;;6.47;1.58;;;17.20;99.90;;;;;;5010350;28;20875;-75
2023/09/30 01:21:56;;;;;;;9.90;1.65;;;17.10;99.90;;;;;;5009559;28;20221;-74
2023/09/30 01:24:22;;;;;;;6.45;1.60;;;17.10;99.90;;;;;;5009269;28;20189;-74
2023/09/30 01:26:48;;;;;;;4.35;1.33;;;17.00;99.90;;;;;;5008370;28;20205;-74
2023/09/30 01:29:14;;;;;;;6.95;1.63;;;17.00;99.90;;;;;;5010331;28;20208;-74
2023/09/30 01:31:39;;;;;;;7.00;1.52;;;17.00;99.90;;;;;;5009463;28;20726;-74
2023/09/30 01:34:05;;;;;;;4.38;1.67;;;17.00;99.90;;;;;;5007629;28;20291;-74
2023/09/30 01:36:31;;;;;;;5.10;1.50;;;16.90;99.90;;;;;;5009773;28;20216;-74
2023/09/30 01:38:57;;;;;;;5.78;1.52;;;16.90;99.90;;;;;;5010409;28;20524;-74
2023/09/30 01:41:23;;;;;;;6.88;1.90;;;16.90;99.90;;;;;;5009511;28;20216;-76
2023/09/30 01:43:49;;;;;;;9.02;2.10;;;16.90;99.90;;;;;;5009768;28;20205;-74
2023/09/30 01:46:15;;;;;;;9.15;1.85;;;16.90;99.90;;;;;;5008501;28;20212;-75
2023/09/30 01:48:40;;;;;;;9.07;1.80;;;16.90;99.90;;;;;;5010044;28;20525;-74
2023/09/30 01:51:06;;;;;;;5.38;1.75;;;16.80;99.90;;;;;;5009808;28;20636;-74
2023/09/30 01:53:32;;;;;;;6.75;2.03;;;16.80;99.90;;;;;;5009852;28;20216;-74
2023/09/30 01:55:58;;;;;;;5.68;1.65;;;16.80;99.90;;;;;;5009732;28;20288;-75
2023/09/30 01:58:25;;;;;;;5.05;1.77;;;16.80;99.90;;;;;;5001958;28;20637;-74
2023/09/30 02:00:53;;;;;;;4.60;1.63;;;16.80;99.90;;;;;;5008217;28;20738;-74
2023/09/30 02:03:19;;;;;;;7.07;2.33;;;16.80;99.90;;;;;;5013768;28;20233;-74
2023/09/30 02:05:45;;;;;;;4.07;1.63;;;16.80;99.90;;;;;;5013191;28;20743;-74
2023/09/30 02:08:10;;;;;;;7.40;3.15;;;16.70;99.90;;;;;;5013227;28;20593;-77
2023/09/30 02:10:36;;;;;;;5.72;1.60;;;16.70;99.90;;;;;;5005365;28;20201;-76
2023/09/30 02:13:05;;;;;;;7.88;2.00;;;16.60;99.90;;;;;;5011181;28;20632;-74
2023/09/30 02:15:31;;;;;;;7.63;1.80;;;16.50;99.90;;;;;;5013042;28;20172;-74
2023/09/30 02:17:57;;;;;;;8.27;2.13;;;16.50;99.90;;;;;;5012953;28;20170;-75
2023/09/30 02:20:25;;;;;;;5.28;1.70;;;16.50;99.90;;;;;;5012787;28;20219;-76
2023/09/30 02:22:52;;;;;;;10.82;1.85;;;16.40;99.90;;;;;;5012434;28;20671;-74
2023/09/30 02:25:18;;;;;;;11.32;2.95;;;16.40;99.90;;;;;;5012848;28;20201;-75
2023/09/30 02:27:45;;;;;;;7.38;2.20;;;16.40;99.90;;;;;;5009030;28;20225;-74
2023/09/30 02:30:14;;;;;;;10.38;2.22;;;16.30;99.90;;;;;;5013112;28;20599;-75
2023/09/30 02:32:43;;;;;;;5.85;2.22;;;16.30;99.90;;;;;;5012273;28;20244;-76
2023/09/30 02:35:10;;;;;;;8.80;2.47;;;16.30;99.90;;;;;;5012375;28;20350;-74
2023/09/30 02:37:36;;;;;;;9.13;1.58;;;16.30;99.90;;;;;;5008598;28;20201;-74
2023/09/30 02:40:09;;;;;;;2.42;1.40;;;16.30;99.90;;;;;;5012101;28;20644;-75
2023/09/30 02:42:38;;;;;;;3.28;1.77;;;16.30;99.90;;;;;;5007303;28;20189;-74
2023/09/30 02:45:05;;;;;;;6.22;1.73;;;16.30;99.90;;;;;;5011865;28;20660;-77
2023/09/30 02:47:32;;;;;;;8.48;2.33;;;16.30;99.90;;;;;;5012351;28;20205;-74
2023/09/30 02:49:58;;;;;;;6.75;2.13;;;16.20;99.90;;;;;;5010338;28;20228;-74
2023/09/30 02:52:24;;;;;;;3.35;1.52;;;16.20;99.90;;;;;;5010483;28;20718;-73
2023/09/30 02:54:50;;;;;;;6.75;1.70;;;16.20;99.90;;;;;;5010801;28;20246;-74
2023/09/30 02:57:15;;;;;;;8.23;1.70;;;16.10;99.90;;;;;;5010159;28;20205;-74
2023/09/30 02:59:42;;;;;;;4.90;2.33;;;16.10;99.90;;;;;;5012337;28;20236;-74
2023/09/30 03:02:07;;;;;;;11.07;2.20;;;16.10;99.90;;;;;;5010007;28;20313;-74
2023/09/30 03:04:33;;;;;;;9.05;2.38;;;16.00;99.90;;;;;;5010788;28;20283;-75
2023/09/30 03:06:59;;;;;;;6.28;2.08;;;16.00;99.90;;;;;;5011530;28;20217;-74
2023/09/30 03:09:26;;;;;;;9.20;2.17;;;15.90;99.90;;;;;;5012124;28;20173;-74
2023/09/30 03:11:51;;;;;;;6.78;2.17;;;15.90;99.90;;;;;;5007506;28;20564;-72
2023/09/30 03:14:17;;;;;;;7.85;2.10;;;15.80;99.90;;;;;;5011167;28;20204;-74
2023/09/30 03:16:44;;;;;;;6.18;2.03;;;15.80;99.90;;;;;;5011680;28;20687;-74
2023/09/30 03:19:11;;;;;;;5.50;1.75;;;15.80;99.90;;;;;;5011693;28;20734;-75
2023/09/30 03:21:37;;;;;;;9.82;2.38;;;15.80;99.90;;;;;;5011103;28;20718;-74
2023/09/30 03:24:04;;;;;;;8.32;2.42;;;15.80;99.90;;;;;;5010418;28;20182;-74
2023/09/30 03:26:30;;;;;;;5.40;1.95;;;15.80;99.90;;;;;;5011584;28;20205;-73
2023/09/30 03:28:56;;;;;;;5.00;2.10;;;15.80;99.90;;;;;;5011553;28;20201;-74
2023/09/30 03:31:22;;;;;;;9.27;2.10;;;15.80;99.90;;;;;;5011117;28;20217;-74
2023/09/30 03:33:51;;;;;;;7.13;2.25;;;15.70;99.90;;;;;;5011661;28;20216;-74
2023/09/30 03:36:18;;;;;;;5.65;1.90;;;15.70;99.90;;;;;;5009622;28;20173;-74
2023/09/30 03:38:44;;;;;;;8.05;1.80;;;15.60;99.90;;;;;;5010316;28;20285;-74
2023/09/30 03:41:12;;;;;;;7.63;2.75;;;15.60;99.90;;;;;;5010783;28;20664;-74
2023/09/30 03:43:41;;;;;;;5.93;2.20;;;15.70;99.90;;;;;;5011431;28;20208;-74
2023/09/30 03:46:08;;;;;;;5.75;1.80;;;15.60;99.90;;;;;;5009705;28;20274;-74
2023/09/30 03:48:39;;;;;;;5.47;2.10;;;15.70;99.90;;;;;;5002577;28;20182;-75
2023/09/30 03:51:09;;;;;;;6.60;2.05;;;15.60;99.90;;;;;;5010113;28;20189;-74
2023/09/30 03:53:35;;;;;;;4.00;1.70;;;15.60;99.90;;;;;;5010985;28;20588;-74
2023/09/30 03:56:01;;;;;;;7.43;2.20;;;15.50;99.90;;;;;;5011042;28;20234;-73
2023/09/30 03:58:28;;;;;;;8.02;1.98;;;15.50;99.90;;;;;;5011249;28;20736;-75
2023/09/30 04:00:54;;;;;;;12.73;2.20;;;15.50;99.90;;;;;;5010440;28;20307;-74
2023/09/30 04:03:20;;;;;;;7.30;2.03;;;15.40;99.90;;;;;;5011173;28;20201;-76
2023/09/30 04:05:45;;;;;;;8.88;1.77;;;15.40;99.90;;;;;;5010992;28;20207;-74
2023/09/30 04:08:11;;;;;;;9.57;1.83;;;15.40;99.90;;;;;;5010687;28;20209;-74
2023/09/30 04:10:37;;;;;;;9.77;1.73;;;15.40;99.90;;;;;;5008394;28;20205;-72
2023/09/30 04:13:02;;;;;;;9.50;2.58;;;15.40;99.90;;;;;;5009159;28;20217;-75
2023/09/30 04:15:28;;;;;;;7.18;2.05;;;15.30;99.90;;;;;;5010952;28;20677;-74
2023/09/30 04:17:54;;;;;;;7.32;2.42;;;15.40;99.90;;;;;;5003000;28;20178;-74
2023/09/30 04:20:23;;;;;;;7.43;2.03;;;15.30;99.90;;;;;;5010580;28;20247;-74
2023/09/30 04:22:49;;;;;;;5.45;1.70;;;15.30;99.90;;;;;;5010279;28;20296;-74
2023/09/30 04:25:19;;;;;;;7.88;2.45;;;15.20;99.90;;;;;;5010309;28;20252;-74
2023/09/30 04:27:47;;;;;;;7.55;2.80;;;15.20;99.90;;;;;;5009361;28;20217;-74
2023/09/30 04:30:15;;;;;;;7.72;2.25;;;15.20;99.90;;;;;;5011153;28;20173;-75
2023/09/30 04:32:41;;;;;;;4.43;1.95;;;15.10;99.90;;;;;;5008612;28;20727;-74
2023/09/30 04:35:10;;;;;;;4.85;2.53;;;15.10;99.90;;;;;;5009227;28;20220;-74
2023/09/30 04:37:36;;;;;;;7.57;1.80;;;15.10;99.90;;;;;;5009077;28;20275;-76
2023/09/30 04:40:15;;;;;;;10.70;2.25;;;15.10;99.90;;;;;;5010500;28;20320;-75
2023/09/30 04:42:44;;;;;;;8.70;2.00;;;15.00;99.90;;;;;;5008654;28;20667;-74
2023/09/30 04:45:10;;;;;;;7.30;2.03;;;15.00;99.90;;;;;;5010970;28;20181;-74
2023/09/30 04:47:38;;;;;;;7.65;1.90;;;15.00;99.90;;;;;;5009045;28;20284;-77
2023/09/30 04:50:07;;;;;;;6.18;2.15;;;14.90;99.90;;;;;;5010551;28;20206;-75
2023/09/30 04:52:33;;;;;;;9.10;2.03;;;14.90;99.90;;;;;;5008472;28;20220;-71
2023/09/30 04:54:59;;;;;;;8.27;2.22;;;14.90;99.90;;;;;;5010475;28;20579;-76
2023/09/30 04:57:26;;;;;;;6.25;2.17;;;14.90;99.90;;;;;;5008931;28;20172;-74
2023/09/30 04:59:51;;;;;;;5.53;2.45;;;14.90;99.90;;;;;;5010569;28;20180;-73
2023/09/30 05:02:17;;;;;;;8.75;2.15;;;14.90;99.90;;;;;;5009574;28;20212;-75
2023/09/30 05:04:43;;;;;;;6.65;1.92;;;14.80;99.90;;;;;;5008981;28;20205;-74
2023/09/30 05:07:08;;;;;;;7.95;2.47;;;14.80;99.90;;;;;;5010007;28;20263;-74
2023/09/30 05:09:34;;;;;;;3.25;1.70;;;14.90;99.90;;;;;;5009153;28;20668;-75
2023/09/30 05:12:00;;;;;;;7.57;2.05;;;14.90;99.90;;;;;;5010382;28;20611;-74
2023/09/30 05:14:27;;;;;;;8.65;2.67;;;14.90;99.90;;;;;;5009629;28;20244;-75
2023/09/30 05:16:53;;;;;;;7.32;2.50;;;14.90;99.90;;;;;;5010549;28;20698;-72
2023/09/30 05:19:20;;;;;;;8.75;1.90;;;15.00;99.90;;;;;;5008932;28;20215;-72
2023/09/30 05:21:47;;;;;;;10.70;2.55;;;15.00;99.90;;;;;;5009958;28;20602;-74
2023/09/30 05:24:12;;;;;;;11.75;2.53;;;15.10;99.90;;;;;;5010567;28;20568;-74
2023/09/30 05:26:38;;;;;;;11.52;1.88;;;15.00;99.90;;;;;;5009729;28;20343;-74
2023/09/30 05:29:04;;;;;;;7.72;3.13;;;15.10;99.90;;;;;;5010860;28;20213;-74
2023/09/30 05:31:30;;;;;;;8.15;2.88;;;15.10;99.90;;;;;;5012879;28;20217;-76
2023/09/30 05:33:56;;;;;;;10.43;1.95;;;15.10;99.90;;;;;;5011879;28;20212;-76
2023/09/30 05:36:22;;;;;;;9.13;1.50;;;15.30;99.90;;;;;;5011636;28;20268;-75
2023/09/30 05:38:48;;;;;;;9.38;2.33;;;15.30;99.90;;;;;;5014386;28;20262;-75
2023/09/30 05:41:16;;;;;;;8.00;2.50;;;15.50;99.90;;;;;;5011866;28;20217;-75
2023/09/30 05:43:43;;;;;;;6.85;2.25;;;15.70;99.90;;;;;;5013548;28;20205;-74
2023/09/30 05:46:09;;;;;;;8.02;1.98;;;15.80;99.90;;;;;;5013600;28;20232;-76
2023/09/30 05:48:34;;;;;;;7.75;2.33;;;15.90;99.90;;;;;;5013883;28;20172;-73
2023/09/30 05:51:01;;;;;;;9.77;1.88;;;16.10;99.90;;;;;;5013094;28;20189;-72
2023/09/30 05:53:27;;;;;;;8.07;2.67;;;16.20;99.90;;;;;;5013139;28;20254;-74
2023/09/30 05:55:53;;;;;;;5.22;2.30;;;16.30;99.90;;;;;;5013707;28;20220;-75
2023/09/30 05:58:19;;;;;;;6.90;2.20;;;17.10;99.90;;;;;;5011986;28;20222;-75
2023/09/30 06:00:44;;;;;;;7.93;1.90;;;18.00;99.90;;;;;;5011802;28;20220;-74
2023/09/30 06:03:13;;;;;;;6.13;1.75;;;19.30;99.90;;;;;;5012223;28;20205;-75
2023/09/30 06:05:41;;;;;;;6.82;1.88;;;20.10;99.90;;;;;;5008347;28;20586;-74
2023/09/30 06:08:10;;;;;;;7.30;1.67;;;20.90;99.90;;;;;;5009631;28;20209;-75
2023/09/30 06:10:38;;;;;;;4.00;1.30;;;21.70;99.90;;;;;;5008333;28;20247;-75
2023/09/30 06:13:04;;;;;;;4.72;1.75;;;22.20;99.90;;;;;;5008076;28;20734;-75
2023/09/30 06:15:29;;;;;;;4.90;1.73;;;22.00;99.90;;;;;;5010642;28;20201;-75
2023/09/30 06:17:56;;;;;;;3.65;1.60;;;22.10;99.90;;;;;;5013532;28;20174;-75
2023/09/30 06:20:22;;;;;;;7.40;2.13;;;22.80;99.90;;;;;;5013029;28;20213;-74
2023/09/30 06:22:53;;;;;;;4.88;1.92;;;22.80;99.90;;;;;;5012360;28;20205;-75
2023/09/30 06:25:20;;;;;;;4.72;1.70;;;22.30;99.90;;;;;;5011591;28;20726;-76
2023/09/30 06:27:47;;;;;;;5.55;1.73;;;21.40;99.90;;;;;;5012694;28;20275;-75
2023/09/30 06:30:14;;;;;;;6.70;1.75;;;20.30;99.90;;;;;;5010117;28;20207;-75
2023/09/30 06:32:40;;;;;;;5.43;1.80;;;19.60;99.90;;;;;;5040567;23;20570;-74
2023/09/30 06:35:06;;;;;;;5.18;1.58;;;19.30;99.90;;;;;;5047062;28;20287;-74
2023/09/30 06:37:32;;;;;;;5.03;1.73;;;18.60;99.90;;;;;;5045611;28;20204;-74
2023/09/30 06:39:59;;;;;;;6.93;1.73;;;18.50;99.90;;;;;;5050135;28;20218;-74
2023/09/30 06:42:26;;;;;;;5.85;1.70;;;18.60;99.90;;;;;;5046410;28;20564;-74
2023/09/30 06:44:53;;;;;;;7.10;1.88;;;18.80;99.90;;;;;;5042883;28;20160;-72
2023/09/30 06:47:18;;;;;;;5.57;1.70;;;19.30;99.90;;;;;;5039219;28;20299;-74
2023/09/30 06:49:45;;;;;;;5.00;1.75;;;19.40;99.90;;;;;;5036014;28;20673;-75
2023/09/30 06:52:10;;;;;;;6.18;1.90;;;19.40;99.90;;;;;;5042721;28;20220;-72
2023/09/30 06:54:36;;;;;;;3.67;1.98;;;19.10;99.90;;;;;;5040473;28;20173;-74
2023/09/30 06:57:02;;;;;;;5.40;2.10;;;18.70;99.90;;;;;;5044689;28;20206;-74
2023/09/30 06:59:28;;;;;;;5.53;1.75;;;18.40;99.90;;;;;;5038779;28;20251;-74
2023/09/30 07:01:54;;;;;;;5.53;1.83;;;18.40;99.90;;;;;;5043201;28;20249;-73
2023/09/30 07:04:21;;;;;;;4.75;2.40;;;18.20;99.90;;;;;;5038999;28;20307;-74
2023/09/30 07:06:47;;;;;;;6.93;1.83;;;17.90;99.90;;;;;;5041187;28;20273;-74
2023/09/30 07:09:12;;;;;;;7.68;2.85;;;18.40;99.90;;;;;;5041390;28;20661;-72
2023/09/30 07:11:38;;;;;;;7.45;1.90;;;18.50;99.90;;;;;;5042068;28;20718;-74
2023/09/30 07:14:04;;;;;;;6.60;1.73;;;18.60;99.90;;;;;;5040059;28;20600;-74
2023/09/30 07:16:30;;;;;;;7.88;2.10;;;18.80;99.90;;;;;;5037645;28;20720;-74
2023/09/30 07:18:56;;;;;;;4.75;1.55;;;19.10;99.90;;;;;;5042381;28;20221;-73
2023/09/30 07:21:21;;;;;;;4.93;1.67;;;19.30;99.90;;;;;;5040733;28;20291;-74
2023/09/30 07:23:48;;;;;;;5.88;1.83;;;19.10;99.90;;;;;;5042710;28;20262;-73
2023/09/30 07:26:14;;;;;;;8.43;1.90;;;19.00;99.90;;;;;;5039503;28;20212;-71
2023/09/30 07:28:40;;;;;;;4.32;1.58;;;19.10;99.90;;;;;;5039080;28;20215;-73
2023/09/30 07:31:06;;;;;;;6.80;1.75;;;19.10;99.90;;;;;;5041875;28;20211;-73
2023/09/30 07:33:32;;;;;;;5.90;1.88;;;19.00;99.90;;;;;;5039175;28;20231;-74
2023/09/30 07:35:57;;;;;;;4.53;1.70;;;18.90;99.90;;;;;;5043051;28;20658;-72
2023/09/30 07:38:23;;;;;;;13.40;2.70;;;18.90;99.90;;;;;;5038734;28;20690;-73
2023/09/30 07:40:49;;;;;;;4.32;2.25;;;19.00;99.90;;;;;;5041622;28;20634;-75
2023/09/30 07:43:15;;;;;;;3.88;1.40;;;18.70;99.90;;;;;;5040597;28;20211;-73
2023/09/30 07:45:43;;;;;;;9.38;2.13;;;18.80;99.90;;;;;;5039729;28;20203;-74
2023/09/30 07:48:09;;;;;;;6.03;1.85;;;18.60;99.90;;;;;;5041515;28;20175;-74
2023/09/30 07:50:36;;;;;;;6.65;2.05;;;18.50;99.90;;;;;;5040675;28;20217;-74
2023/09/30 07:53:02;;;;;;;7.38;1.83;;;18.20;99.90;;;;;;5039658;28;20232;-74
2023/09/30 07:55:28;;;;;;;6.78;1.70;;;18.20;99.90;;;;;;5040018;28;20267;-74
2023/09/30 07:57:54;;;;;;;5.30;1.67;;;18.10;99.90;;;;;;5037657;28;20312;-74
2023/09/30 08:00:21;;;;;;;8.23;1.95;;;17.90;99.90;;;;;;5042295;28;20259;-74
2023/09/30 08:02:46;;;;;;;7.75;1.95;;;17.70;99.90;;;;;;5038053;28;20208;-74
2023/09/30 08:05:12;;;;;;;5.55;1.73;;;17.80;99.90;;;;;;5042881;28;20257;-74
2023/09/30 08:07:38;;;;;;;3.53;1.50;;;17.70;99.90;;;;;;5037203;28;20258;-74
2023/09/30 08:10:05;;;;;;;8.77;2.22;;;17.60;99.90;;;;;;5042331;28;20291;-74
2023/09/30 08:12:30;;;;;;;5.43;1.60;;;17.70;99.90;;;;;;5037076;28;20196;-74
2023/09/30 08:14:56;;;;;;;9.93;2.58;;;17.60;99.90;;;;;;5042273;28;20824;-74
2023/09/30 08:17:21;;;;;;;7.63;2.30;;;17.80;99.90;;;;;;5039643;28;20227;-74
2023/09/30 08:19:47;;;;;;;16.58;2.28;;;18.00;99.90;;;;;;5040928;28;20192;-74
2023/09/30 08:22:14;;;;;;;4.63;1.60;;;18.50;99.90;;;;;;5040175;28;20233;-74
2023/09/30 08:24:40;;;;;;;3.92;1.45;;;18.80;99.90;;;;;;5039849;28;20215;-74
2023/09/30 08:27:06;;;;;;;6.53;1.75;;;19.30;99.90;;;;;;5040263;28;20693;-74
2023/09/30 08:29:37;;;;;;;7.68;2.30;;;19.90;99.90;;;;;;5038246;28;20212;-74
2023/09/30 08:32:03;;;;;;;5.88;1.73;;;20.60;99.90;;;;;;5040741;28;20219;-74
2023/09/30 08:34:29;;;;;;;5.00;2.05;;;20.80;99.90;;;;;;5036645;28;20606;-74
2023/09/30 08:36:55;;;;;;;3.00;1.42;;;20.80;99.90;;;;;;5041192;28;20235;-74
2023/09/30 08:39:21;;;;;;;3.88;1.70;;;20.70;99.90;;;;;;5038786;28;20231;-72
2023/09/30 08:41:46;;;;;;;6.40;1.83;;;20.30;99.90;;;;;;5028595;28;20266;-74
2023/09/30 08:44:12;;;;;;;4.28;1.80;;;20.30;99.90;;;;;;5037084;28;20696;-74
2023/09/30 08:46:39;;;;;;;5.65;1.65;;;20.50;99.90;;;;;;5038163;28;20215;-74
2023/09/30 08:49:08;;;;;;;7.50;2.25;;;20.80;99.90;;;;;;5038729;28;20212;-74
2023/09/30 08:51:35;;;;;;;7.50;2.17;;;20.60;99.90;;;;;;5038294;28;20279;-74
2023/09/30 08:54:03;;;;;;;6.22;1.58;;;20.50;99.90;;;;;;5041582;28;20204;-74
2023/09/30 08:56:32;;;;;;;6.10;1.70;;;20.10;99.90;;;;;;5036141;28;20215;-74
2023/09/30 08:58:59;;;;;;;7.32;1.55;;;20.00;99.90;;;;;;5041787;28;20303;-74
2023/09/30 09:01:28;;;;;;;4.93;1.60;;;20.40;99.90;;;;;;5037929;28;20231;-74
2023/09/30 09:03:54;;;;;;;5.15;2.15;;;20.90;99.90;;;;;;5039103;28;20224;-74
2023/09/30 09:06:24;;;;;;;4.38;1.83;;;20.90;99.90;;;;;;5039617;28;20184;-74
2023/09/30 09:08:51;;;;;;;7.75;1.88;;;21.20;99.90;;;;;;5039500;28;20211;-73
2023/09/30 09:11:20;;;;;;;6.82;1.50;;;21.40;99.90;;;;;;5040150;28;20234;-74
2023/09/30 09:13:53;;;;;;;6.03;1.60;;;21.20;99.90;;;;;;5045087;28;20199;-74
2023/09/30 09:16:19;;;;;;;5.53;1.45;;;21.30;99.90;;;;;;5042094;28;20203;-74
2023/09/30 09:18:47;;;;;;;5.53;1.48;;;21.40;99.90;;;;;;5037942;28;20691;-74
2023/09/30 09:21:22;;;;;;;6.00;1.55;;;21.30;99.90;;;;;;5044383;28;20755;-74
2023/09/30 09:23:50;;;;;;;4.32;1.38;;;21.60;99.90;;;;;;5034323;28;20262;-73
2023/09/30 09:26:34;;;;;;;9.73;1.85;;;22.00;99.90;;;;;;5045367;28;20767;-75
2023/09/30 09:29:03;;;;;;;8.00;2.05;;;21.90;99.90;;;;;;5044008;28;20262;-74
2023/09/30 09:31:30;;;;;;;9.55;1.60;;;22.00;99.90;;;;;;5038924;28;20207;-74
2023/09/30 09:33:57;;;;;;;4.90;2.25;;;21.90;99.90;;;;;;5043842;28;20764;-73
2023/09/30 09:36:41;;;;;;;4.88;1.77;;;22.20;99.90;;;;;;5043849;28;20176;-74
2023/09/30 09:39:07;;;;;;;4.90;1.17;;;22.00;99.90;;;;;;5036922;28;20242;-75
2023/09/30 09:41:33;;;;;;;5.43;1.58;;;22.30;99.90;;;;;;5039328;28;20243;-74
2023/09/30 09:43:59;;;;;;;7.55;1.58;;;22.60;99.90;;;;;;5043813;28;20208;-74
2023/09/30 09:46:28;;;;;;;8.68;3.20;;;22.40;99.90;;;;;;5041771;28;20208;-74
2023/09/30 09:48:57;;;;;;;7.45;1.85;;;22.60;99.90;;;;;;5043247;28;20203;-74
2023/09/30 09:51:24;;;;;;;2.83;1.40;;;22.80;99.90;;;;;;5042061;28;20238;-74
2023/09/30 09:53:50;;;;;;;4.78;1.25;;;22.80;99.90;;;;;;5041146;28;20208;-74
2023/09/30 09:56:19;;;;;;;6.30;1.42;;;22.70;99.90;;;;;;5040906;28;20644;-73
2023/09/30 09:58:47;;;;;;;8.25;2.75;;;22.60;99.90;;;;;;5037949;28;20215;-73
2023/09/30 10:01:13;;;;;;;5.38;1.73;;;22.80;99.90;;;;;;5043025;28;20891;-73
2023/09/30 10:03:39;;;;;;;5.97;1.65;;;22.90;99.90;;;;;;5041532;28;20204;-73
2023/09/30 10:06:05;;;;;;;7.05;1.75;;;23.00;99.90;;;;;;5044467;28;20184;-73
2023/09/30 10:08:36;;;;;;;8.02;1.35;;;22.90;99.90;;;;;;5042289;28;20207;-72
2023/09/30 10:11:02;;;;;;;8.13;1.88;;;22.30;99.90;;;;;;5041925;28;20209;-72
2023/09/30 10:13:50;;;;;;;4.43;1.52;;;22.20;99.90;;;;;;5042147;28;20217;-73
2023/09/30 10:16:34;;;;;;;7.38;1.38;;;21.80;99.90;;;;;;5039522;28;20588;-73
2023/09/30 10:19:18;;;;;;;8.27;1.33;;;22.10;99.90;;;;;;5043638;28;20598;-73
2023/09/30 10:22:21;;;;;;;4.70;2.00;;;22.30;99.90;;;;;;5039854;28;20285;-73
2023/09/30 10:24:55;;;;;;;6.60;1.50;;;22.30;99.90;;;;;;5024578;28;20213;-73
2023/09/30 10:27:32;;;;;;;7.53;1.20;;;22.50;99.90;;;;;;5040687;28;20573;-73
2023/09/30 10:30:09;;;;;;;4.35;2.25;;;21.80;99.90;;;;;;5037297;28;20208;-73
2023/09/30 10:33:09;;;;;;;5.03;1.00;;;21.70;99.90;;;;;;5033935;28;20732;-75
2023/09/30 10:35:37;;;;;;;10.63;2.13;;;21.40;99.90;;;;;;5024214;28;20737;-75
2023/09/30 10:38:24;;;;;;;4.32;1.60;;;21.30;99.90;;;;;;5041744;28;20212;-75
2023/09/30 10:40:51;;;;;;;6.35;1.45;;;21.40;99.90;;;;;;5036596;28;20273;-74
2023/09/30 10:43:35;;;;;;;5.22;1.45;;;21.50;99.90;;;;;;5034750;28;20208;-74
2023/09/30 10:46:01;;;;;;;5.90;2.03;;;21.60;99.90;;;;;;5036358;28;20646;-74
2023/09/30 10:48:33;;;;;;;5.32;1.05;;;21.70;99.90;;;;;;5042550;28;20548;-75
2023/09/30 10:51:14;;;;;;;5.35;1.73;;;21.60;99.90;;;;;;5036513;28;20190;-74
2023/09/30 10:53:56;;;;;;;6.43;1.40;;;21.40;99.90;;;;;;5037518;28;20278;-74
2023/09/30 10:56:23;;;;;;;3.15;1.30;;;21.70;99.90;;;;;;5039754;28;20211;-75
2023/09/30 10:58:53;;;;;;;10.27;2.60;;;21.90;99.90;;;;;;5038198;28;20234;-75
2023/09/30 11:01:21;;;;;;;5.70;2.03;;;22.30;99.90;;;;;;5040599;28;20589;-74
2023/09/30 11:03:51;;;;;;;5.63;1.17;;;22.20;99.90;;;;;;5041401;28;20212;-75
2023/09/30 11:06:20;;;;;;;3.97;1.65;;;22.30;99.90;;;;;;5042376;28;20191;-75
2023/09/30 11:08:55;;;;;;;7.65;1.40;;;22.50;99.90;;;;;;5035160;28;20208;-74
2023/09/30 11:11:43;;;;;;;5.25;1.60;;;22.30;99.90;;;;;;5042945;28;20557;-75
2023/09/30 11:14:20;;;;;;;4.45;1.00;;;22.10;99.90;;;;;;5036009;28;20266;-75
2023/09/30 11:16:47;;;;;;;3.97;1.13;;;21.60;99.90;;;;;;5040475;28;20204;-75
2023/09/30 11:19:12;;;;;;;3.33;1.00;;;21.20;99.90;;;;;;5042507;28;20196;-75
2023/09/30 11:21:43;;;;;;;5.35;1.20;;;21.30;99.90;;;;;;5037165;28;20218;-74
2023/09/30 11:24:10;;;;;;;4.38;1.08;;;21.50;99.90;;;;;;5040485;28;20237;-74
2023/09/30 11:26:36;;;;;;;6.25;1.23;;;21.90;99.90;;;;;;5038947;28;20203;-72
2023/09/30 11:29:11;;;;;;;2.95;1.30;;;22.20;99.90;;;;;;5038644;28;20204;-74
2023/09/30 11:31:41;;;;;;;5.53;1.45;;;22.40;99.90;;;;;;5038611;28;20287;-72
2023/09/30 11:34:07;;;;;;;3.13;1.83;;;22.30;99.90;;;;;;5040270;28;20296;-74
2023/09/30 11:36:38;;;;;;;6.20;2.88;;;22.40;99.90;;;;;;5040077;28;20168;-73
2023/09/30 11:39:04;;;;;;;9.00;2.78;;;22.20;99.90;;;;;;5043103;28;20174;-73
2023/09/30 11:41:41;;;;;;;8.55;3.38;;;22.10;99.90;;;;;;5038521;28;20212;-74
2023/09/30 11:44:15;;;;;;;3.78;1.35;;;22.30;99.90;;;;;;5028089;28;20238;-74
2023/09/30 11:46:55;;;;;;;5.43;1.33;;;22.40;99.90;;;;;;5042028;28;20203;-73
2023/09/30 11:49:34;;;;;;;4.82;1.05;;;22.10;99.90;;;;;;5042079;28;20250;-73
2023/09/30 11:52:02;;;;;;;6.57;1.20;;;22.20;99.90;;;;;;5035763;28;20209;-74
2023/09/30 11:54:43;;;;;;;6.20;1.33;;;22.20;99.90;;;;;;5037031;28;20192;-73
2023/09/30 11:57:09;;;;;;;2.92;1.10;;;22.30;99.90;;;;;;5039875;28;20178;-73
2023/09/30 11:59:41;;;;;;;3.42;0.93;;;22.20;99.90;;;;;;5039027;28;20204;-73
2023/09/30 12:02:09;;;;;;;2.22;0.70;;;22.10;99.90;;;;;;5039260;28;20220;-73
2023/09/30 12:04:38;;;;;;;3.10;1.20;;;22.10;99.90;;;;;;5039651;28;20264;-73
2023/09/30 12:07:04;;;;;;;3.85;1.55;;;21.90;99.90;;;;;;5041016;28;20208;-73
2023/09/30 12:09:31;;;;;;;4.88;1.17;;;21.90;99.90;;;;;;5039937;28;20257;-73
2023/09/30 12:11:57;;;;;;;6.25;1.35;;;21.80;99.90;;;;;;5036490;28;20697;-72
2023/09/30 12:14:24;;;;;;;3.13;1.00;;;21.80;99.90;;;;;;5041055;28;20207;-73
2023/09/30 12:16:50;;;;;;;3.75;1.00;;;21.70;99.90;;;;;;5039853;28;20828;-72
2023/09/30 12:19:19;;;;;;;3.42;1.10;;;21.40;99.90;;;;;;5041919;28;20238;-73
2023/09/30 12:21:47;;;;;;;3.05;1.38;;;21.40;99.90;;;;;;5028529;28;20589;-72
2023/09/30 12:24:19;;;;;;;5.32;1.33;;;21.40;99.90;;;;;;5033795;28;20201;-73
2023/09/30 12:26:48;;;;;;;5.25;1.77;;;21.40;99.90;;;;;;5040927;28;20227;-72
2023/09/30 12:29:18;;;;;;;4.00;1.15;;;21.40;99.90;;;;;;5037288;28;20201;-72
2023/09/30 12:31:45;;;;;;;4.30;1.52;;;21.50;99.90;;;;;;5040509;28;20203;-72
2023/09/30 12:34:12;;;;;;;3.10;1.13;;;21.60;99.90;;;;;;5038454;28;20600;-73
2023/09/30 12:36:38;;;;;;;3.35;1.10;;;21.70;99.90;;;;;;5040896;28;20210;-72
2023/09/30 12:39:10;;;;;;;7.93;1.48;;;21.60;99.90;;;;;;5039608;28;20176;-73
2023/09/30 12:41:43;;;;;;;3.83;1.20;;;21.60;99.90;;;;;;5038902;28;20709;-73
2023/09/30 12:44:10;;;;;;;3.13;0.82;;;21.50;99.90;;;;;;5037503;28;20204;-73
2023/09/30 12:46:36;;;;;;;3.88;0.77;;;21.30;99.90;;;;;;5040338;28;20203;-73
2023/09/30 12:49:07;;;;;;;2.33;0.85;;;21.20;99.90;;;;;;5038971;28;20235;-73